Time;durP1;ratioP1;P1;durP2;ratioP2;P2;SDS_P1;SDS_P2;PMS_P1;PMS_P2;Temp;Humidity;BMP_temperature;BMP_pressure;BME280_temperature;BME280_humidity;BME280_pressure;Samples;Min_cycle;Max_cycle;Signal;HPM_P1;HPM_P2
2022/09/17 00:01:41;;;;;;;;;13.00;13.00;;;;;14.67;100.00;98764.94;6317433;20;2796178;-61
2022/09/17 00:04:10;;;;;;;;;12.67;12.00;;;;;14.59;100.00;98768.34;6283610;20;3517970;-62
2022/09/17 00:06:40;;;;;;;;;12.80;12.80;;;;;14.57;100.00;98766.78;6330495;20;2791910;-62
2022/09/17 00:09:08;;;;;;;;;11.00;11.00;;;;;14.46;100.00;98747.00;6281810;20;2789364;-61
2022/09/17 00:11:41;;;;;;;;;12.33;11.00;;;;;14.40;100.00;98749.41;6280781;20;3517116;-62
2022/09/17 00:14:17;;;;;;;;;18.00;14.00;;;;;14.53;100.00;98743.75;6314219;20;2803844;-62
2022/09/17 00:16:48;;;;;;;;;12.00;11.00;;;;;14.47;100.00;98750.53;6278897;20;2789971;-61
2022/09/17 00:19:21;;;;;;;;;12.00;11.00;;;;;14.55;100.00;98748.00;6317278;20;2790898;-61
2022/09/17 00:21:51;;;;;;;;;15.00;14.00;;;;;14.53;100.00;98747.28;6276780;20;3416067;-61
2022/09/17 00:24:20;;;;;;;;;16.00;15.00;;;;;14.40;100.00;98754.78;6315220;20;2816956;-62
2022/09/17 00:26:49;;;;;;;;;15.50;15.50;;;;;14.39;100.00;98755.81;6278658;20;3482548;-62
2022/09/17 00:29:18;;;;;;;;;12.33;12.33;;;;;14.45;100.00;98752.53;6311048;20;3510652;-62
2022/09/17 00:31:45;;;;;;;;;15.00;14.00;;;;;14.43;100.00;98746.44;6310966;20;2815906;-61
2022/09/17 00:34:14;;;;;;;;;15.67;15.67;;;;;14.32;100.00;98742.00;6280601;20;3533777;-60
2022/09/17 00:36:43;;;;;;;;;16.33;14.00;;;;;14.27;100.00;98739.75;6308355;20;3535794;-61
2022/09/17 00:39:14;;;;;;;;;15.00;14.00;;;;;14.24;100.00;98745.44;6277570;20;3530485;-61
2022/09/17 00:41:43;;;;;;;;;14.00;12.00;;;;;14.21;100.00;98748.38;6281911;20;2796148;-60
2022/09/17 00:44:52;;;;;;;;;8.60;8.60;;;;;14.35;100.00;98749.84;6305632;20;2756599;-60
2022/09/17 00:47:41;;;;;;;;;15.33;14.00;;;;;14.30;100.00;98744.00;6308357;20;3533661;-60
2022/09/17 00:50:27;;;;;;;;;16.00;15.67;;;;;14.31;100.00;98734.06;6307076;20;3556480;-59
2022/09/17 00:53:16;;;;;;;;;13.67;12.67;;;;;14.38;100.00;98740.59;6277804;20;3527319;-60
2022/09/17 00:56:18;;;;;;;;;16.67;16.00;;;;;14.14;100.00;98743.69;6308870;20;2820114;-60
2022/09/17 00:58:46;;;;;;;;;12.00;11.00;;;;;14.24;100.00;98737.34;6312946;20;2788867;-61
2022/09/17 01:01:16;;;;;;;;;14.40;13.40;;;;;14.33;100.00;98742.88;6305234;20;2802330;-60
2022/09/17 01:03:44;;;;;;;;;13.50;13.50;;;;;14.17;100.00;98727.22;6285244;20;2812753;-60
2022/09/17 01:06:41;;;;;;;;;16.67;14.33;;;;;14.15;100.00;98726.50;6272155;20;3539853;-60
2022/09/17 01:09:37;;;;;;;;;15.50;15.00;;;;;14.15;100.00;98716.56;6312174;20;2812884;-60
2022/09/17 01:12:26;;;;;;;;;13.33;13.33;;;;;14.10;100.00;98710.72;6276669;20;3518973;-60
2022/09/17 01:15:50;;;;;;;;;20.50;15.00;;;;;14.14;100.00;98712.16;6310683;20;2816968;-60
2022/09/17 01:19:39;;;;;;;;;16.67;15.00;;;;;14.05;100.00;98702.19;6276393;20;3536683;-60
2022/09/17 01:22:35;;;;;;;;;14.00;14.00;;;;;13.94;100.00;98695.09;6281399;20;2797211;-60
2022/09/17 01:26:05;;;;;;;;;16.00;14.00;;;;;13.99;100.00;98690.13;6279559;20;2492187;-59
2022/09/17 01:29:17;;;;;;;;;17.00;16.00;;;;;13.96;100.00;98676.91;6279977;20;3556529;-60
2022/09/17 01:32:19;;;;;;;;;16.67;15.00;;;;;13.95;100.00;98674.34;6270674;20;3541902;-60
2022/09/17 01:35:13;;;;;;;;;17.50;15.00;;;;;14.16;100.00;98693.97;6307872;20;2492214;-61
2022/09/17 01:38:37;;;;;;;;;20.67;16.00;;;;;14.09;100.00;98690.16;6274475;20;3570153;-61
2022/09/17 01:41:32;;;;;;;;;20.00;18.00;;;;;14.08;100.00;98687.56;6279682;20;2830636;-61
2022/09/17 01:44:41;;;;;;;;;21.00;17.50;;;;;14.03;100.00;98682.59;6310967;20;2835680;-61
2022/09/17 01:47:54;;;;;;;;;19.00;17.00;;;;;13.85;100.00;98674.38;6280286;20;2835702;-61
2022/09/17 01:50:35;;;;;;;;;19.00;17.33;;;;;13.93;100.00;98676.31;6279227;20;2487801;-60
2022/09/17 01:53:08;;;;;;;;;22.00;19.50;;;;;13.90;100.00;98673.91;6311657;20;2833681;-61
2022/09/17 01:55:40;;;;;;;;;15.67;15.67;;;;;13.92;100.00;98680.03;6278725;20;3548254;-60
2022/09/17 01:58:34;;;;;;;;;19.67;18.00;;;;;13.97;100.00;98680.47;6282373;20;2833582;-59
2022/09/17 02:01:06;;;;;;;;;19.00;19.00;;;;;13.92;100.00;98686.28;6310259;20;2833794;-59
2022/09/17 02:04:01;;;;;;;;;19.00;18.00;;;;;14.02;100.00;98691.69;6282245;20;2843994;-58
2022/09/17 02:06:37;;;;;;;;;18.50;16.00;;;;;13.87;100.00;98693.94;6279071;20;2491934;-59
2022/09/17 02:09:28;;;;;;;;;20.50;19.00;;;;;14.03;100.00;98705.06;6283297;20;2840910;-59
2022/09/17 02:12:02;;;;;;;;;19.00;16.00;;;;;14.03;100.00;98706.88;6280681;20;2496065;-59
2022/09/17 02:14:48;;;;;;;;;18.00;16.50;;;;;14.00;100.00;98704.47;6283316;20;2826419;-59
2022/09/17 02:17:43;;;;;;;;;16.67;16.67;;;;;14.04;100.00;98697.81;6283459;20;3569009;-59
2022/09/17 02:20:13;;;;;;;;;20.00;19.00;;;;;13.92;100.00;98696.22;6279581;20;2835783;-59
2022/09/17 02:22:58;;;;;;;;;18.00;17.00;;;;;13.97;100.00;98704.75;6279827;20;2835712;-59
2022/09/17 02:25:43;;;;;;;;;18.50;18.50;;;;;13.83;100.00;98690.69;6282925;20;2839934;-59
2022/09/17 02:28:25;;;;;;;;;19.00;19.00;;;;;13.92;100.00;98696.22;6282382;20;2841960;-59
2022/09/17 02:30:54;;;;;;;;;20.00;20.00;;;;;13.88;100.00;98692.13;6280833;20;2833829;-59
2022/09/17 02:33:24;;;;;;;;;22.00;22.00;;;;;13.82;100.00;98694.38;6281901;20;2838841;-60
2022/09/17 02:35:52;;;;;;;;;20.50;20.00;;;;;13.87;100.00;98695.78;6281056;20;2840058;-60
2022/09/17 02:38:26;;;;;;;;;11.67;11.00;;;;;13.93;100.00;98692.53;6281657;20;3519086;-61
2022/09/17 02:41:21;;;;;;;;;19.00;19.00;;;;;13.87;100.00;98676.91;6315768;20;3579485;-60
2022/09/17 02:44:12;;;;;;;;;21.00;21.00;;;;;13.76;100.00;98676.03;6278701;20;2835689;-60
2022/09/17 02:47:23;;;;;;;;;20.00;20.00;;;;;13.92;100.00;98663.84;6278582;20;2500372;-60
2022/09/17 02:50:38;;;;;;;;;18.00;18.00;;;;;13.80;100.00;98661.28;6280434;20;2837780;-60
2022/09/17 02:53:46;;;;;;;;;15.50;14.00;;;;;13.83;100.00;98670.94;6282882;20;2806520;-61
2022/09/17 02:57:22;;;;;;;;;18.00;18.00;;;;;13.92;100.00;98655.75;6275369;20;2496165;-61
2022/09/17 03:00:16;;;;;;;;;19.50;19.50;;;;;13.77;100.00;98645.38;6279923;20;2842984;-60
2022/09/17 03:02:57;;;;;;;;;15.00;14.50;;;;;13.71;100.00;98645.91;6281309;20;2809742;-61
2022/09/17 03:05:27;;;;;;;;;22.50;22.00;;;;;13.89;100.00;98643.38;6279447;20;2835797;-61
2022/09/17 03:07:56;;;;;;;;;24.00;22.00;;;;;13.80;100.00;98628.91;6280937;20;2835668;-61
2022/09/17 03:10:32;;;;;;;;;23.00;22.00;;;;;13.84;100.00;98624.91;6281290;20;2840874;-60
2022/09/17 03:13:01;;;;;;;;;18.67;18.67;;;;;13.80;100.00;98611.88;6315115;20;3577297;-64
2022/09/17 03:15:29;;;;;;;;;19.50;19.50;;;;;13.77;100.00;98606.72;6312709;20;2839835;-65
2022/09/17 03:17:59;;;;;;;;;26.33;26.33;;;;;13.74;100.00;98605.16;6283518;20;2851440;-64
2022/09/17 03:20:28;;;;;;;;;22.33;20.00;;;;;13.62;100.00;98603.63;6317014;20;3571089;-64
2022/09/17 03:22:56;;;;;;;;;21.00;20.00;;;;;13.67;100.00;98592.41;6278863;20;2836707;-64
2022/09/17 03:25:24;;;;;;;;;5.00;0.00;;;;;13.78;100.00;98590.41;6285176;20;3420167;-58
2022/09/17 03:27:52;;;;;;;;;38.67;33.33;;;;;13.74;100.00;98585.44;6285811;20;3610721;-58
2022/09/17 03:30:20;;;;;;;;;18.00;17.00;;;;;13.75;100.00;98582.63;6280436;20;2496294;-59
2022/09/17 03:32:49;;;;;;;;;24.50;21.50;;;;;13.66;100.00;98583.44;6277123;20;2836932;-59
2022/09/17 03:35:18;;;;;;;;;19.50;18.50;;;;;13.70;100.00;98573.25;6280783;20;2826283;-58
2022/09/17 03:37:46;;;;;;;;;19.50;18.00;;;;;13.60;100.00;98570.53;6283055;20;2841946;-58
2022/09/17 03:40:15;;;;;;;;;15.67;15.67;;;;;13.68;100.00;98569.84;6277776;20;3557591;-59
2022/09/17 03:42:44;;;;;;;;;18.00;16.67;;;;;13.59;100.00;98563.44;6281241;20;3569157;-59
2022/09/17 03:45:12;;;;;;;;;22.00;17.50;;;;;13.50;100.00;98564.28;6280413;20;2487829;-59
2022/09/17 03:47:40;;;;;;;;;22.00;19.00;;;;;13.67;100.00;98552.81;6276829;20;2489913;-59
2022/09/17 03:50:08;;;;;;;;;18.00;16.00;;;;;13.52;100.00;98549.66;6280888;20;2831525;-59
2022/09/17 03:52:37;;;;;;;;;16.33;15.33;;;;;13.44;100.00;98556.75;6278293;20;3539835;-58
2022/09/17 03:55:06;;;;;;;;;16.00;15.33;;;;;13.46;100.00;98550.25;6279967;20;3548153;-59
2022/09/17 03:57:34;;;;;;;;;16.00;16.00;;;;;13.41;100.00;98552.50;6281753;20;2489859;-59
2022/09/17 04:00:04;;;;;;;;;16.00;16.00;;;;;13.34;100.00;98562.13;6282551;20;2821124;-59
2022/09/17 04:02:31;;;;;;;;;16.00;14.00;;;;;13.51;100.00;98553.38;6286540;20;2808604;-58
2022/09/17 04:04:59;;;;;;;;;12.00;12.00;;;;;13.39;100.00;98551.78;6283856;20;2794037;-61
2022/09/17 04:07:27;;;;;;;;;16.00;15.00;;;;;13.23;100.00;98552.28;6282541;20;2809650;-58
2022/09/17 04:09:56;;;;;;;;;16.00;14.00;;;;;13.30;100.00;98550.78;6281282;20;3538770;-58
2022/09/17 04:12:24;;;;;;;;;14.33;12.67;;;;;13.39;100.00;98543.69;6281948;20;3540924;-58
2022/09/17 04:14:52;;;;;;;;;14.00;14.00;;;;;13.32;100.00;98551.50;6284817;20;2810860;-59
2022/09/17 04:17:20;;;;;;;;;14.00;14.00;;;;;13.37;100.00;98562.69;6284202;20;2788810;-60
2022/09/17 04:19:48;;;;;;;;;15.00;13.50;;;;;13.38;100.00;98559.03;6284557;20;2797152;-60
2022/09/17 04:22:16;;;;;;;;;15.00;15.00;;;;;13.34;100.00;98562.13;6281651;20;2496096;-60
2022/09/17 04:24:44;;;;;;;;;16.50;15.50;;;;;13.36;100.00;98569.09;6274792;20;2491961;-58
2022/09/17 04:27:12;;;;;;;;;13.00;13.00;;;;;13.33;100.00;98561.28;6282353;20;2806572;-60
2022/09/17 04:29:40;;;;;;;;;16.67;16.67;;;;;13.34;100.00;98567.53;6281458;20;2831674;-58
2022/09/17 04:32:08;;;;;;;;;12.00;12.00;;;;;13.34;100.00;98567.53;6313871;20;2804580;-60
2022/09/17 04:34:36;;;;;;;;;11.67;11.67;;;;;13.36;100.00;98571.78;6282384;20;2789056;-67
2022/09/17 04:37:04;;;;;;;;;16.00;14.00;;;;;13.32;100.00;98570.38;6312043;20;2811337;-67
2022/09/17 04:39:33;;;;;;;;;14.00;13.00;;;;;13.37;100.00;98559.16;6277806;20;3516928;-67
2022/09/17 04:42:00;;;;;;;;;13.00;11.50;;;;;13.21;100.00;98562.34;6306804;20;2792051;-67
2022/09/17 04:44:30;;;;;;;;;12.00;10.20;;;;;13.30;100.00;98563.44;6308430;20;2791920;-67
2022/09/17 04:46:58;;;;;;;;;11.00;11.00;;;;;13.18;100.00;98563.50;6283597;20;2786812;-61
2022/09/17 04:49:28;;;;;;;;;14.33;12.67;;;;;13.30;100.00;98566.97;6280917;20;2797239;-60
2022/09/17 04:51:57;;;;;;;;;11.67;11.67;;;;;13.38;100.00;98579.75;6309643;20;2802655;-60
2022/09/17 04:54:24;;;;;;;;;14.50;13.50;;;;;13.32;100.00;98574.91;6311223;20;2787791;-60
2022/09/17 04:56:53;;;;;;;;;12.00;12.00;;;;;13.36;100.00;98579.88;6276779;20;3519012;-58
2022/09/17 04:59:23;;;;;;;;;10.00;10.00;;;;;13.26;100.00;98572.72;6337338;20;2786805;-62
2022/09/17 05:01:51;;;;;;;;;11.67;11.00;;;;;13.36;100.00;98584.41;6280988;20;2791962;-60
2022/09/17 05:04:20;;;;;;;;;19.00;16.50;;;;;13.26;100.00;98581.69;6310508;20;2827472;-60
2022/09/17 05:06:49;;;;;;;;;23.00;18.00;;;;;13.18;100.00;98581.50;6273947;20;2834743;-60
2022/09/17 05:09:18;;;;;;;;;10.40;10.00;;;;;13.28;100.00;98574.34;6303016;20;2796119;-59
2022/09/17 05:11:46;;;;;;;;;13.00;10.50;;;;;13.36;100.00;98571.78;6280602;20;2796174;-61
2022/09/17 05:14:15;;;;;;;;;9.00;9.00;;;;;13.42;100.00;98566.84;6278561;20;2760800;-60
2022/09/17 05:19:54;;;;;;;;;11.00;9.00;;;;;13.23;100.00;98576.56;6308628;20;2778370;-60
2022/09/17 05:22:22;;;;;;;;;8.00;8.00;;;;;13.34;100.00;98568.38;6277056;20;2746167;-59
2022/09/17 05:24:50;;;;;;;;;9.00;7.00;;;;;13.33;99.68;98566.69;6277016;20;2746106;-60
2022/09/17 05:27:19;;;;;;;;;8.00;8.00;;;;;13.37;100.00;98570.78;6302000;20;2754549;-60
2022/09/17 05:29:47;;;;;;;;;9.00;9.00;;;;;13.30;100.00;98574.22;6312796;20;2738945;-61
2022/09/17 05:32:15;;;;;;;;;9.50;8.00;;;;;13.28;100.00;98577.03;6280687;20;2760748;-62
2022/09/17 05:34:43;;;;;;;;;7.50;7.50;;;;;13.24;100.00;98572.00;6282057;20;2745042;-63
2022/09/17 05:37:12;;;;;;;;;8.80;8.80;;;;;13.18;100.00;98586.91;6303420;20;2743990;-62
2022/09/17 05:39:40;;;;;;;;;10.00;10.00;;;;;13.15;100.00;98601.50;6306619;20;2791918;-62
2022/09/17 05:42:08;;;;;;;;;9.00;9.00;;;;;13.24;100.00;98599.81;6277066;20;2754415;-62
2022/09/17 05:44:36;;;;;;;;;11.50;10.00;;;;;13.21;100.00;98621.66;6279501;20;2784616;-63
2022/09/17 05:47:04;;;;;;;;;9.00;7.50;;;;;13.14;100.00;98626.75;6276226;20;2752375;-62
2022/09/17 05:49:31;;;;;;;;;11.50;10.00;;;;;13.14;100.00;98623.22;6281154;20;2788953;-62
2022/09/17 05:52:01;;;;;;;;;14.33;14.33;;;;;13.21;100.00;98621.66;6274104;20;3531473;-62
2022/09/17 05:54:33;;;;;;;;;21.75;20.00;;;;;13.12;100.00;98634.13;6335029;20;3570054;-62
2022/09/17 05:57:03;;;;;;;;;19.00;18.00;;;;;13.30;100.00;98642.44;6273602;20;2838826;-62
2022/09/17 05:59:31;;;;;;;;;16.50;15.50;;;;;13.25;100.00;98651.91;6283195;20;2494015;-62
2022/09/17 06:01:59;;;;;;;;;12.00;12.00;;;;;13.29;100.00;98639.88;6278812;20;3520016;-62
2022/09/17 06:04:27;;;;;;;;;23.50;21.50;;;;;13.24;100.00;98640.25;6308867;20;2479440;-62
2022/09/17 06:07:07;;;;;;;;;21.00;19.50;;;;;13.27;100.00;98636.47;6276570;20;2500270;-63
2022/09/17 06:09:36;;;;;;;;;12.00;11.00;;;;;13.13;100.00;98629.56;6281108;20;2794186;-63
2022/09/17 06:12:06;;;;;;;;;11.80;7.80;;;;;13.30;100.00;98620.03;6338010;20;2754530;-62
2022/09/17 06:14:36;;;;;;;;;13.00;11.20;;;;;13.15;100.00;98620.38;6305815;20;2790040;-62
2022/09/17 06:17:05;;;;;;;;;9.20;9.00;;;;;13.33;100.00;98620.59;6307589;20;2753419;-62
2022/09/17 06:19:34;;;;;;;;;10.67;9.67;;;;;13.26;100.00;98608.66;6310678;20;3504576;-60
2022/09/17 06:22:02;;;;;;;;;11.00;11.00;;;;;13.33;100.00;98622.44;6316624;20;2485797;-62
2022/09/17 06:24:31;;;;;;;;;11.33;11.00;;;;;13.52;100.00;98627.88;6280855;20;2789837;-62
2022/09/17 06:27:00;;;;;;;;;16.67;15.33;;;;;13.56;100.00;98621.22;6307201;20;3547141;-62
2022/09/17 06:29:29;;;;;;;;;9.33;9.33;;;;;13.65;100.00;98622.22;6280184;20;3481464;-63
2022/09/17 06:31:59;;;;;;;;;14.00;11.80;;;;;13.54;99.77;98619.66;6341483;20;2798558;-62
2022/09/17 06:34:28;;;;;;;;;13.00;11.00;;;;;13.62;100.00;98614.41;6284144;20;2792028;-62
2022/09/17 06:36:56;;;;;;;;;12.00;11.00;;;;;13.79;100.00;98620.94;6305951;20;3525403;-63
2022/09/17 06:39:27;;;;;;;;;9.86;8.43;;;;;13.89;98.32;98627.19;6360474;20;1798167;-62
2022/09/17 06:41:56;;;;;;;;;8.00;8.00;;;;;13.88;97.63;98622.81;6337331;20;1797755;-61
2022/09/17 06:44:27;;;;;;;;;9.86;9.00;;;;;13.98;99.16;98620.09;6359860;20;1796104;-62
2022/09/17 06:46:56;;;;;;;;;14.00;11.00;;;;;13.89;100.00;98618.25;6315135;20;2785805;-62
2022/09/17 06:49:23;;;;;;;;;11.00;11.00;;;;;13.96;100.00;98606.75;6318164;20;2790916;-62
2022/09/17 06:51:51;;;;;;;;;9.50;8.50;;;;;13.95;99.35;98610.44;6291556;20;2755536;-62
2022/09/17 06:54:19;;;;;;;;;10.00;10.00;;;;;14.27;99.53;98610.13;6290129;20;2794014;-63
2022/09/17 06:56:47;;;;;;;;;10.33;10.33;;;;;14.19;98.06;98612.72;6286036;20;2791986;-61
2022/09/17 06:59:16;;;;;;;;;12.00;10.00;;;;;14.13;99.20;98615.97;6318375;20;2789985;-61
2022/09/17 07:01:46;;;;;;;;;10.67;10.00;;;;;14.08;99.97;98620.09;6288889;20;2784074;-60
2022/09/17 07:04:18;;;;;;;;;9.80;9.80;;;;;14.06;100.00;98620.25;6343407;20;2770107;-60
2022/09/17 07:06:46;;;;;;;;;8.00;8.00;;;;;14.04;100.00;98633.03;6286880;20;2748166;-61
2022/09/17 07:09:14;;;;;;;;;8.50;8.50;;;;;13.97;100.00;98640.00;6291557;20;2750306;-61
2022/09/17 07:11:43;;;;;;;;;12.20;10.00;;;;;13.92;100.00;98643.09;6313519;20;2791026;-61
2022/09/17 07:14:13;;;;;;;;;9.60;9.60;;;;;13.91;100.00;98648.66;6316165;20;2768081;-61
2022/09/17 07:16:41;;;;;;;;;11.67;11.00;;;;;13.93;100.00;98652.03;6284975;20;3520141;-61
2022/09/17 07:19:10;;;;;;;;;11.33;10.33;;;;;13.63;100.00;98642.22;6316086;20;2791965;-61
2022/09/17 07:21:42;;;;;;;;;11.00;11.00;;;;;13.61;100.00;98639.66;6315774;20;2786742;-61
2022/09/17 07:24:09;;;;;;;;;9.50;9.50;;;;;13.87;100.00;98644.53;6317900;20;2766964;-61
2022/09/17 07:26:37;;;;;;;;;13.00;10.00;;;;;14.01;100.00;98628.78;6284298;20;2792413;-61
2022/09/17 07:29:05;;;;;;;;;8.00;8.00;;;;;14.05;99.37;98640.13;6285909;20;2747189;-61
2022/09/17 07:31:32;;;;;;;;;11.00;11.00;;;;;14.06;99.69;98644.53;6287267;20;2771080;-61
2022/09/17 07:34:00;;;;;;;;;11.50;10.00;;;;;14.13;98.09;98650.22;6284681;20;2786839;-59
2022/09/17 07:36:28;;;;;;;;;9.50;9.50;;;;;14.25;99.52;98651.78;6282111;20;2763905;-61
2022/09/17 07:38:56;;;;;;;;;9.00;9.00;;;;;14.46;98.47;98646.22;6287383;20;2746116;-61
2022/09/17 07:41:24;;;;;;;;;10.00;8.50;;;;;14.30;96.78;98635.13;6288668;20;2763894;-61
2022/09/17 07:43:54;;;;;;;;;11.00;10.50;;;;;14.19;96.61;98623.50;6288055;20;2782559;-60
2022/09/17 07:46:22;;;;;;;;;10.33;9.67;;;;;14.37;95.36;98625.47;6283858;20;2780506;-60
2022/09/17 07:48:50;;;;;;;;;8.00;8.00;;;;;14.20;94.77;98614.41;6320521;20;2752679;-62
2022/09/17 07:51:24;;;;;;;;;10.00;8.60;;;;;14.31;95.00;98616.09;6312111;20;2759662;-61
2022/09/17 07:54:01;;;;;;;;;9.20;9.00;;;;;14.35;93.43;98611.25;6312925;20;2769105;-61
2022/09/17 07:56:29;;;;;;;;;10.00;10.00;;;;;14.39;94.53;98609.97;6280950;20;2789822;-61
2022/09/17 07:58:56;;;;;;;;;10.00;10.00;;;;;14.34;93.40;98615.78;6286262;20;2774283;-61
2022/09/17 08:01:38;;;;;;;;;8.00;8.00;;;;;14.25;93.29;98625.63;6310718;20;2750527;-57
2022/09/17 08:04:07;;;;;;;;;8.40;8.40;;;;;14.47;93.17;98623.59;6341119;20;2750324;-62
2022/09/17 08:06:39;;;;;;;;;7.50;7.50;;;;;14.40;92.31;98625.16;6317819;20;2734674;-61
2022/09/17 08:09:09;;;;;;;;;10.50;10.50;;;;;14.54;92.62;98608.56;6278064;20;2790100;-61
2022/09/17 08:11:39;;;;;;;;;8.80;8.80;;;;;14.73;91.20;98612.19;6303133;20;2739974;-61
2022/09/17 08:14:24;;;;;;;;;10.33;9.00;;;;;14.77;91.73;98610.88;6312556;20;2766042;-61
2022/09/17 08:16:56;;;;;;;;;7.00;6.50;;;;;14.80;90.46;98607.91;6315684;20;2744101;-61
2022/09/17 08:19:28;;;;;;;;;9.20;8.20;;;;;14.78;90.26;98616.16;6310559;20;2747272;-62
2022/09/17 08:21:59;;;;;;;;;6.86;6.86;;;;;14.67;90.50;98621.75;6356464;20;3451325;-61
2022/09/17 08:24:31;;;;;;;;;7.57;7.14;;;;;14.75;91.27;98634.53;6360937;20;3442962;-61
2022/09/17 08:27:00;;;;;;;;;10.80;8.00;;;;;14.78;90.77;98645.03;6337294;20;2764037;-61
2022/09/17 08:29:31;;;;;;;;;7.71;7.71;;;;;14.81;91.88;98639.34;6325076;20;3457545;-62
2022/09/17 08:32:02;;;;;;;;;6.50;6.50;;;;;14.48;90.98;98634.28;6314960;20;2735669;-61
2022/09/17 08:34:30;;;;;;;;;9.00;8.00;;;;;14.54;90.83;98622.06;6282692;20;2731570;-61
2022/09/17 08:37:01;;;;;;;;;7.43;7.00;;;;;14.51;90.55;98625.03;6320708;20;3443045;-61
2022/09/17 08:39:29;;;;;;;;;7.00;7.00;;;;;14.60;88.91;98626.88;6316657;20;2734718;-62
2022/09/17 08:42:35;;;;;;;;;6.50;6.00;;;;;14.46;89.76;98641.66;6287311;20;2741924;-61
2022/09/17 08:45:13;;;;;;;;;6.40;6.40;;;;;14.70;88.94;98643.91;6305970;20;2742994;-59
2022/09/17 08:47:42;;;;;;;;;8.00;7.00;;;;;14.77;88.98;98637.91;6313240;20;2744173;-61
2022/09/17 08:50:31;;;;;;;;;7.00;7.00;;;;;14.72;88.92;98646.47;6307427;20;2737797;-61
2022/09/17 08:53:12;;;;;;;;;9.43;7.14;;;;;14.79;88.89;98635.91;6356301;20;3463773;-61
2022/09/17 08:56:01;;;;;;;;;9.00;7.50;;;;;15.17;88.93;98639.50;6310413;20;2735837;-61
2022/09/17 08:58:53;;;;;;;;;8.50;7.50;;;;;15.13;88.07;98644.31;6284734;20;2730454;-58
2022/09/17 09:02:02;;;;;;;;;9.50;5.50;;;;;15.02;87.81;98641.81;6283817;20;2742955;-59
2022/09/17 09:04:42;;;;;;;;;5.00;5.00;;;;;15.03;88.54;98638.09;6284958;20;2750382;-61
2022/09/17 09:07:28;;;;;;;;;7.50;6.50;;;;;15.28;87.33;98639.28;6286887;20;2740882;-62
2022/09/17 09:10:22;;;;;;;;;7.20;6.80;;;;;15.45;86.25;98632.19;6305432;20;2744027;-61
2022/09/17 09:12:53;;;;;;;;;8.40;7.00;;;;;15.45;85.61;98654.69;6339244;20;2734615;-62
2022/09/17 09:15:44;;;;;;;;;6.50;5.00;;;;;15.06;85.99;98654.91;6315077;20;2737775;-62
2022/09/17 09:18:28;;;;;;;;;6.00;6.00;;;;;15.45;86.46;98645.72;6283533;20;2744010;-61
2022/09/17 09:21:20;;;;;;;;;6.00;6.00;;;;;15.25;86.24;98650.41;6285718;20;2737813;-62
2022/09/17 09:24:25;;;;;;;;;7.00;6.00;;;;;15.00;86.33;98650.06;6288103;20;2739344;-61
2022/09/17 09:27:20;;;;;;;;;6.00;6.00;;;;;15.08;87.24;98644.75;6296181;20;1791899;-61
2022/09/17 09:30:12;;;;;;;;;6.00;6.00;;;;;15.07;85.03;98645.78;6332342;20;1811912;-61
2022/09/17 09:33:06;;;;;;;;;5.00;5.00;;;;;14.93;85.18;98635.47;6315295;20;2748161;-61
2022/09/17 09:35:41;;;;;;;;;6.00;4.50;;;;;15.08;85.77;98641.22;6287558;20;2741913;-61
2022/09/17 09:38:14;;;;;;;;;3.00;3.00;;;;;15.06;83.87;98638.66;6283682;20;2744039;-61
2022/09/17 09:40:59;;;;;;;;;5.00;5.00;;;;;15.04;83.21;98632.56;6285788;20;2742968;-61
2022/09/17 09:43:51;;;;;;;;;4.00;4.00;;;;;15.11;83.57;98644.50;6285078;20;2738887;-61
2022/09/17 09:46:58;;;;;;;;;6.00;4.00;;;;;15.07;83.18;98636.81;6283565;20;2743997;-61
2022/09/17 09:49:52;;;;;;;;;5.50;5.50;;;;;15.07;84.17;98651.19;6289206;20;2749268;-62
2022/09/17 09:53:03;;;;;;;;;5.00;3.00;;;;;15.13;83.63;98644.31;6285633;20;2740865;-61
2022/09/17 09:55:58;;;;;;;;;4.00;4.00;;;;;15.03;82.46;98643.50;6284800;20;2757248;-62
2022/09/17 09:58:44;;;;;;;;;4.50;4.50;;;;;14.97;83.25;98644.94;6288226;20;2756571;-61
2022/09/17 10:01:19;;;;;;;;;3.50;3.50;;;;;15.19;81.99;98637.47;6289130;20;2746092;-62
2022/09/17 10:03:51;;;;;;;;;3.00;3.00;;;;;15.06;81.00;98649.50;6290451;20;2735748;-62
2022/09/17 10:06:19;;;;;;;;;3.00;3.00;;;;;15.06;81.84;98645.91;6293164;20;2746261;-62
2022/09/17 10:08:55;;;;;;;;;3.50;3.50;;;;;15.22;80.96;98645.28;6291326;20;2756697;-62
2022/09/17 10:11:28;;;;;;;;;3.00;3.00;;;;;15.20;79.64;98628.38;6309131;20;1807659;-60
2022/09/17 10:14:25;;;;;;;;;5.00;4.00;;;;;15.30;80.12;98638.13;6323468;20;2748239;-62
2022/09/17 10:17:18;;;;;;;;;5.00;3.00;;;;;15.17;80.54;98640.34;6291895;20;2752323;-62
2022/09/17 10:20:06;;;;;;;;;4.00;4.00;;;;;15.29;80.08;98649.09;6294697;20;2750650;-61
2022/09/17 10:22:46;;;;;;;;;7.00;5.00;;;;;15.05;79.84;98631.53;6290512;20;2748573;-62
2022/09/17 10:25:32;;;;;;;;;3.00;3.00;;;;;15.10;79.69;98626.53;6293019;20;2741904;-62
2022/09/17 10:28:23;;;;;;;;;4.00;4.00;;;;;15.30;79.53;98618.34;6288353;20;2740343;-62
2022/09/17 10:31:03;;;;;;;;;6.43;6.43;;;;;15.31;79.56;98620.88;6332461;20;3453350;-62
2022/09/17 10:33:57;;;;;;;;;6.50;5.00;;;;;15.40;80.50;98618.28;6321653;20;2738800;-60
2022/09/17 10:36:51;;;;;;;;;5.50;5.50;;;;;15.45;79.65;98606.00;6289546;20;2737816;-61
2022/09/17 10:39:43;;;;;;;;;4.00;4.00;;;;;15.23;78.00;98598.31;6287904;20;2756513;-62
2022/09/17 10:42:10;;;;;;;;;5.00;4.00;;;;;15.43;79.12;98609.84;6292062;20;2750238;-61
2022/09/17 10:44:55;;;;;;;;;5.00;5.00;;;;;15.53;78.57;98610.66;6310192;20;1803948;-62
2022/09/17 10:47:36;;;;;;;;;7.29;6.57;;;;;15.70;78.30;98604.44;6361727;20;3449618;-61
2022/09/17 10:50:16;;;;;;;;;6.00;6.00;;;;;15.87;77.47;98589.19;6320214;20;2741976;-61
2022/09/17 10:52:51;;;;;;;;;7.00;6.00;;;;;15.97;77.84;98592.69;6287602;20;2732537;-61
2022/09/17 10:55:40;;;;;;;;;8.00;7.00;;;;;16.20;77.90;98600.34;6284086;20;2741930;-62
2022/09/17 10:58:07;;;;;;;;;5.00;5.00;;;;;16.01;77.30;98588.66;6289279;20;2742996;-63
2022/09/17 11:01:48;;;;;;;;;5.00;5.00;;;;;15.80;77.08;98585.44;6292742;20;2738873;-61
2022/09/17 11:04:54;;;;;;;;;5.50;5.50;;;;;15.75;76.40;98571.53;6291233;20;2737900;-64
2022/09/17 11:07:43;;;;;;;;;7.60;6.20;;;;;15.85;75.84;98558.75;6309613;20;2737145;-61
2022/09/17 11:10:44;;;;;;;;;5.00;5.00;;;;;16.05;75.46;98543.16;6319925;20;2738936;-64
2022/09/17 11:14:24;;;;;;;;;5.00;5.00;;;;;16.12;74.47;98538.84;6286287;20;2742081;-64
2022/09/17 11:17:48;;;;;;;;;4.00;4.00;;;;;15.98;74.43;98526.72;6281839;20;2745169;-65
2022/09/17 11:21:10;;;;;;;;;7.00;6.00;;;;;16.06;74.62;98544.00;6290752;20;2737982;-64
2022/09/17 11:23:58;;;;;;;;;4.00;4.00;;;;;15.87;74.10;98542.34;6286918;20;2771163;-64
2022/09/17 11:27:01;;;;;;;;;13.00;13.00;;;;;16.05;73.87;98542.31;6283209;20;2803412;-64
2022/09/17 11:30:03;;;;;;;;;6.50;6.00;;;;;15.83;74.74;98559.91;6318582;20;2732695;-64
2022/09/17 11:33:38;;;;;;;;;5.50;5.50;;;;;15.49;75.36;98569.53;6289830;20;2731588;-64
2022/09/17 11:36:42;;;;;;;;;9.00;6.00;;;;;15.44;75.06;98566.44;6280641;20;2734638;-64
2022/09/17 11:39:56;;;;;;;;;4.50;4.50;;;;;15.22;76.23;98570.44;6285734;20;2744486;-63
2022/09/17 11:42:57;;;;;;;;;5.00;5.00;;;;;15.18;76.48;98584.41;6288581;20;2745040;-62
2022/09/17 11:45:33;;;;;;;;;6.00;6.00;;;;;15.17;75.95;98590.81;6289007;20;2741909;-64
2022/09/17 11:48:19;;;;;;;;;5.80;5.80;;;;;15.09;75.52;98587.00;6310535;20;2736727;-64
2022/09/17 11:51:00;;;;;;;;;6.50;5.00;;;;;15.08;74.57;98581.72;6318215;20;2742025;-65
2022/09/17 11:54:00;;;;;;;;;6.50;5.50;;;;;15.08;75.00;98558.25;6290505;20;2731544;-63
2022/09/17 11:56:43;;;;;;;;;7.50;6.00;;;;;15.08;74.66;98547.44;6289778;20;2742049;-64
2022/09/17 12:00:07;;;;;;;;;6.00;6.00;;;;;15.05;75.80;98545.03;6328449;20;3440867;-62
2022/09/17 12:03:00;;;;;;;;;6.00;6.00;;;;;15.25;75.32;98528.72;6361911;20;3447246;-64